Time;durP1;ratioP1;P1;durP2;ratioP2;P2;SDS_P1;SDS_P2;PMS_P1;PMS_P2;Temp;Humidity;BMP_temperature;BMP_pressure;BME280_temperature;BME280_humidity;BME280_pressure;Samples;Min_cycle;Max_cycle;Signal;HPM_P1;HPM_P2
2023/01/05 00:00:52;;;;;;;92.25;40.20;;;;;;;;;;5054207;28;20423;-79
2023/01/05 00:03:17;;;;;;;84.88;36.80;;;;;;;;;;5036983;28;20021;-79
2023/01/05 00:05:42;;;;;;;88.18;35.05;;;;;;;;;;5064516;28;20345;-79
2023/01/05 00:08:09;;;;;;;90.93;35.13;;;;;;;;;;5077564;28;20051;-78
2023/01/05 00:24:21;;;;;;;73.07;30.77;;;;;;;;;;5061305;28;20128;-79
2023/01/05 00:26:47;;;;;;;67.15;28.25;;;;;;;;;;5076395;28;20114;-79
2023/01/05 00:29:12;;;;;;;67.28;27.40;;;;;;;;;;5058385;28;20126;-79
2023/01/05 00:31:38;;;;;;;66.78;26.45;;;;;;;;;;5058303;28;20051;-79
2023/01/05 00:34:03;;;;;;;62.13;23.33;;;;;;;;;;5058487;28;20045;-79
2023/01/05 00:36:30;;;;;;;62.00;25.20;;;;;;;;;;5041851;28;20422;-78
2023/01/05 00:38:55;;;;;;;63.50;26.27;;;;;;;;;;5058624;28;20036;-79
2023/01/05 00:41:20;;;;;;;81.60;30.30;;;;;;;;;;5075998;28;20085;-79
2023/01/05 00:43:46;;;;;;;79.95;28.63;;;;;;;;;;5076280;28;20055;-79
2023/01/05 00:46:11;;;;;;;80.43;28.27;;;;;;;;;;5076039;28;20040;-79
2023/01/05 00:48:37;;;;;;;68.65;27.13;;;;;;;;;;5041448;28;20044;-79
2023/01/05 00:51:02;;;;;;;68.68;26.05;;;;;;;;;;5057897;28;20028;-79
2023/01/05 00:53:28;;;;;;;56.15;23.80;;;;;;;;;;5076301;28;20035;-79
2023/01/05 00:55:57;;;;;;;71.40;26.77;;;;;;;;;;5074697;28;20059;-79
2023/01/05 00:58:22;;;;;;;60.75;23.52;;;;;;;;;;5058211;28;20029;-79
2023/01/05 01:00:48;;;;;;;68.03;24.30;;;;;;;;;;5057723;28;20067;-79
2023/01/05 01:03:13;;;;;;;60.53;23.58;;;;;;;;;;5058206;28;20032;-79
2023/01/05 01:05:39;;;;;;;52.30;21.33;;;;;;;;;;5075754;28;20024;-80
2023/01/05 01:08:04;;;;;;;52.83;21.83;;;;;;;;;;5058067;28;20029;-80
2023/01/05 01:10:30;;;;;;;45.53;19.90;;;;;;;;;;5075927;28;20036;-80
2023/01/05 01:12:55;;;;;;;49.63;21.05;;;;;;;;;;5058000;28;20032;-79
2023/01/05 01:15:20;;;;;;;52.38;21.67;;;;;;;;;;5075890;28;20023;-78
2023/01/05 01:17:46;;;;;;;44.78;19.83;;;;;;;;;;5057628;28;20037;-78
2023/01/05 01:20:12;;;;;;;47.53;19.85;;;;;;;;;;5075842;28;20024;-78
2023/01/05 01:22:37;;;;;;;45.53;19.20;;;;;;;;;;5057510;28;20024;-78
2023/01/05 01:25:03;;;;;;;44.80;18.98;;;;;;;;;;5057675;28;20033;-79
2023/01/05 01:27:30;;;;;;;45.03;18.95;;;;;;;;;;5057660;28;20036;-79
2023/01/05 01:29:55;;;;;;;38.30;18.65;;;;;;;;;;5074871;28;20044;-79
2023/01/05 01:32:23;;;;;;;41.05;18.80;;;;;;;;;;5057215;28;20028;-78
2023/01/05 01:34:48;;;;;;;46.03;19.33;;;;;;;;;;5075173;28;20049;-78
2023/01/05 01:37:14;;;;;;;43.17;19.65;;;;;;;;;;5074977;28;20038;-79
2023/01/05 01:39:40;;;;;;;48.72;21.83;;;;;;;;;;5040210;28;20052;-79
2023/01/05 01:42:05;;;;;;;46.78;20.75;;;;;;;;;;5056896;28;20035;-79
2023/01/05 01:44:46;;;;;;;44.67;20.50;;;;;;;;;;5056766;28;20055;-79
2023/01/05 01:47:51;;;;;;;53.50;23.58;;;;;;;;;;5057103;28;20043;-78
2023/01/05 01:50:19;;;;;;;56.03;23.13;;;;;;;;;;4957725;28;20473;-78
2023/01/05 01:52:45;;;;;;;61.50;24.30;;;;;;;;;;5025231;28;20052;-79
2023/01/05 01:55:11;;;;;;;53.70;24.55;;;;;;;;;;5040536;28;20094;-79
2023/01/05 01:57:36;;;;;;;59.30;27.42;;;;;;;;;;5056889;28;20059;-79
2023/01/05 02:00:04;;;;;;;62.90;28.80;;;;;;;;;;5040192;28;20480;-79
2023/01/05 02:02:30;;;;;;;70.90;35.00;;;;;;;;;;5057272;28;20462;-79
2023/01/05 02:04:56;;;;;;;61.75;27.52;;;;;;;;;;5056942;28;20033;-79
2023/01/05 02:07:22;;;;;;;61.65;27.58;;;;;;;;;;5056639;28;20461;-78
2023/01/05 02:09:48;;;;;;;60.45;27.23;;;;;;;;;;5040069;28;20118;-79
2023/01/05 02:12:31;;;;;;;61.78;27.58;;;;;;;;;;5074299;28;20063;-79
2023/01/05 02:15:07;;;;;;;67.05;28.45;;;;;;;;;;5056720;28;20028;-79
2023/01/05 02:18:03;;;;;;;66.63;26.52;;;;;;;;;;5074463;28;20048;-79
2023/01/05 02:20:49;;;;;;;62.83;25.67;;;;;;;;;;5056734;28;20040;-79
2023/01/05 02:23:42;;;;;;;59.75;26.08;;;;;;;;;;5074496;28;20028;-79
2023/01/05 02:26:43;;;;;;;60.28;26.67;;;;;;;;;;5074118;28;20350;-79
2023/01/05 02:29:40;;;;;;;63.25;27.38;;;;;;;;;;5039648;28;20123;-78
2023/01/05 02:32:11;;;;;;;75.28;28.85;;;;;;;;;;5044161;28;20047;-79
2023/01/05 02:34:57;;;;;;;82.13;30.45;;;;;;;;;;5042200;28;20055;-79
2023/01/05 02:37:41;;;;;;;75.28;28.73;;;;;;;;;;5040512;28;20041;-79
2023/01/05 02:40:23;;;;;;;71.22;29.95;;;;;;;;;;5041466;28;20082;-79
2023/01/05 02:42:49;;;;;;;71.43;31.13;;;;;;;;;;5039693;28;20032;-79
2023/01/05 02:45:15;;;;;;;74.90;29.42;;;;;;;;;;5040257;28;20602;-79
2023/01/05 02:47:41;;;;;;;83.38;31.08;;;;;;;;;;5074130;28;20108;-79
2023/01/05 02:50:16;;;;;;;78.22;29.58;;;;;;;;;;5074377;28;20031;-79
2023/01/05 02:52:54;;;;;;;67.50;28.15;;;;;;;;;;5057046;28;20036;-80
2023/01/05 02:55:22;;;;;;;69.30;27.25;;;;;;;;;;5040758;28;20024;-81
2023/01/05 02:58:08;;;;;;;88.63;34.10;;;;;;;;;;5039908;28;20369;-80
2023/01/05 03:00:39;;;;;;;104.18;36.40;;;;;;;;;;5058371;28;20036;-79
2023/01/05 03:03:13;;;;;;;;;;;;;;;;;;5056797;28;20449;-79
2023/01/05 03:05:58;;;;;;;80.05;30.00;;;;;;;;;;5056159;28;19912;-79
2023/01/05 03:08:24;;;;;;;77.35;31.48;;;;;;;;;;5041752;28;20115;-79
2023/01/05 03:14:12;;;;;;;79.88;31.23;;;;;;;;;;5058549;28;20059;-79
2023/01/05 03:16:38;;;;;;;76.38;30.35;;;;;;;;;;5055969;28;20032;-79
2023/01/05 03:35:40;;;;;;;95.35;37.78;;;;;;;;;;5044234;28;20054;-80
2023/01/05 03:38:29;;;;;;;93.68;38.58;;;;;;;;;;5039354;28;20102;-79
2023/01/05 03:40:57;;;;;;;94.50;39.35;;;;;;;;;;5056883;28;20024;-79
2023/01/05 03:43:22;;;;;;;93.80;38.65;;;;;;;;;;5039368;28;20123;-79
2023/01/05 03:45:55;;;;;;;94.72;37.60;;;;;;;;;;5038875;28;20115;-79
2023/01/05 03:48:21;;;;;;;90.75;38.83;;;;;;;;;;5073379;28;20033;-78
2023/01/05 03:50:47;;;;;;;90.63;39.00;;;;;;;;;;5055707;28;20036;-79
2023/01/05 03:53:12;;;;;;;108.55;44.72;;;;;;;;;;5055131;28;20043;-80
2023/01/05 03:55:37;;;;;;;96.35;38.70;;;;;;;;;;5055643;28;20393;-80
2023/01/05 03:58:03;;;;;;;101.35;39.70;;;;;;;;;;5055563;28;20071;-79
2023/01/05 04:00:28;;;;;;;107.03;43.42;;;;;;;;;;5073206;28;20040;-78
2023/01/05 04:02:54;;;;;;;98.43;43.72;;;;;;;;;;5073511;28;20055;-79
2023/01/05 04:05:19;;;;;;;121.10;53.75;;;;;;;;;;5058783;28;20035;-79
2023/01/05 04:07:45;;;;;;;112.70;48.00;;;;;;;;;;5076869;28;20481;-79
2023/01/05 04:10:10;;;;;;;105.18;44.40;;;;;;;;;;5059087;28;20369;-79
2023/01/05 04:12:35;;;;;;;109.07;42.92;;;;;;;;;;5042319;28;20438;-80
2023/01/05 04:15:02;;;;;;;107.25;46.55;;;;;;;;;;5076916;28;20363;-79
2023/01/05 04:17:28;;;;;;;109.72;42.83;;;;;;;;;;5042506;28;20029;-79
2023/01/05 04:19:53;;;;;;;96.80;42.83;;;;;;;;;;5025501;28;20040;-79
2023/01/05 04:22:19;;;;;;;105.53;43.00;;;;;;;;;;5076652;28;20072;-79
2023/01/05 04:24:44;;;;;;;101.18;38.72;;;;;;;;;;5059451;28;20087;-79
2023/01/05 04:27:10;;;;;;;94.80;37.03;;;;;;;;;;5058894;28;20381;-79
2023/01/05 04:29:35;;;;;;;86.28;35.58;;;;;;;;;;5058636;28;20354;-78
2023/01/05 04:32:00;;;;;;;97.53;37.72;;;;;;;;;;5076713;28;20472;-79
2023/01/05 04:34:26;;;;;;;97.32;38.67;;;;;;;;;;5058499;28;20059;-78
2023/01/05 04:36:51;;;;;;;106.47;41.17;;;;;;;;;;5076203;28;20047;-78
2023/01/05 04:39:17;;;;;;;103.25;42.33;;;;;;;;;;5076422;28;20127;-78
2023/01/05 04:41:42;;;;;;;99.90;40.65;;;;;;;;;;5076188;28;20097;-78
2023/01/05 04:44:08;;;;;;;104.88;44.65;;;;;;;;;;5076208;28;20119;-79
2023/01/05 04:46:33;;;;;;;110.80;47.47;;;;;;;;;;5058592;28;20037;-78
2023/01/05 04:48:59;;;;;;;114.95;48.55;;;;;;;;;;5076231;28;20032;-79
2023/01/05 04:51:24;;;;;;;123.53;50.05;;;;;;;;;;5076014;28;20029;-79
2023/01/05 04:53:49;;;;;;;132.05;52.92;;;;;;;;;;5058704;28;20031;-79
2023/01/05 04:56:15;;;;;;;123.70;53.25;;;;;;;;;;5058105;28;20457;-78
2023/01/05 04:58:40;;;;;;;128.30;54.22;;;;;;;;;;5041434;28;20036;-80
2023/01/05 05:01:07;;;;;;;131.50;53.05;;;;;;;;;;5076059;28;20056;-80
2023/01/05 05:03:33;;;;;;;138.93;58.80;;;;;;;;;;5075833;28;20471;-78
2023/01/05 05:05:58;;;;;;;148.27;60.80;;;;;;;;;;5041042;28;20055;-79
2023/01/05 05:08:24;;;;;;;153.77;62.83;;;;;;;;;;5075953;28;20177;-79
2023/01/05 05:10:49;;;;;;;159.15;65.00;;;;;;;;;;5057889;28;20032;-79
2023/01/05 05:13:14;;;;;;;152.57;61.47;;;;;;;;;;5075815;28;20082;-79
2023/01/05 05:15:40;;;;;;;152.35;57.88;;;;;;;;;;5075045;28;20027;-78
2023/01/05 05:18:06;;;;;;;141.20;57.00;;;;;;;;;;5041053;28;20484;-78
2023/01/05 05:20:31;;;;;;;138.00;55.90;;;;;;;;;;5056416;28;20115;-78
2023/01/05 05:22:56;;;;;;;131.52;54.47;;;;;;;;;;5076385;28;20066;-77
2023/01/05 05:25:22;;;;;;;148.13;58.97;;;;;;;;;;5062034;28;20017;-81
2023/01/05 05:27:47;;;;;;;147.02;60.40;;;;;;;;;;5079523;28;20020;-79
2023/01/05 05:30:13;;;;;;;178.95;66.95;;;;;;;;;;5052961;28;20150;-79
2023/01/05 05:32:38;;;;;;;160.95;63.00;;;;;;;;;;5069770;28;20060;-79
2023/01/05 05:35:04;;;;;;;166.02;64.05;;;;;;;;;;5064159;28;20408;-79
2023/01/05 05:37:32;;;;;;;168.68;67.07;;;;;;;;;;5057764;28;20036;-79
2023/01/05 05:39:57;;;;;;;146.10;56.97;;;;;;;;;;5057621;28;20040;-79
2023/01/05 05:42:23;;;;;;;484.25;51.00;;;;;;;;;;5057428;28;20472;-79
2023/01/05 05:44:48;;;;;;;258.90;53.35;;;;;;;;;;5057303;28;20032;-77
2023/01/05 05:47:14;;;;;;;102.45;32.40;;;;;;;;;;5070026;28;20033;-79
2023/01/05 05:49:41;;;;;;;213.80;33.08;;;;;;;;;;5072414;28;20479;-79
2023/01/05 05:52:07;;;;;;;396.75;43.33;;;;;;;;;;5054590;28;20068;-83
2023/01/05 05:54:32;;;;;;;176.88;35.05;;;;;;;;;;5066316;28;20130;-79
2023/01/05 05:57:01;;;;;;;176.27;32.80;;;;;;;;;;5065622;28;20044;-78
2023/01/05 05:59:30;;;;;;;254.27;37.10;;;;;;;;;;5062415;28;20039;-79
2023/01/05 06:01:56;;;;;;;264.70;42.03;;;;;;;;;;5056510;28;20084;-82
2023/01/05 06:04:29;;;;;;;312.02;41.30;;;;;;;;;;5030819;28;20132;-82
2023/01/05 06:06:55;;;;;;;360.65;35.10;;;;;;;;;;5065617;28;20024;-78
2023/01/05 06:09:23;;;;;;;354.95;36.17;;;;;;;;;;5066485;28;20128;-81
2023/01/05 06:11:49;;;;;;;256.77;34.88;;;;;;;;;;5035693;28;20041;-79
2023/01/05 06:14:15;;;;;;;342.45;30.65;;;;;;;;;;5055295;28;20033;-81
2023/01/05 06:16:40;;;;;;;167.00;28.27;;;;;;;;;;5052006;28;20086;-81
2023/01/05 06:19:07;;;;;;;205.98;26.83;;;;;;;;;;5048351;28;20040;-80
2023/01/05 06:21:33;;;;;;;348.50;28.88;;;;;;;;;;5033745;28;20082;-79
2023/01/05 06:23:58;;;;;;;305.98;28.95;;;;;;;;;;5032609;28;20441;-80
2023/01/05 06:26:24;;;;;;;362.25;33.05;;;;;;;;;;5066725;28;20210;-78
2023/01/05 06:28:49;;;;;;;314.70;37.45;;;;;;;;;;5066027;28;20047;-78
2023/01/05 06:31:24;;;;;;;299.38;37.80;;;;;;;;;;5066223;28;20178;-84
2023/01/05 06:33:49;;;;;;;279.20;55.22;;;;;;;;;;5036292;28;20040;-83
2023/01/05 06:36:15;;;;;;;336.50;50.08;;;;;;;;;;5058706;28;20024;-82
2023/01/05 06:38:40;;;;;;;231.75;35.03;;;;;;;;;;5072694;28;20044;-79
2023/01/05 06:41:10;;;;;;;235.88;34.20;;;;;;;;;;5036008;28;20043;-78
2023/01/05 06:43:35;;;;;;;275.45;34.65;;;;;;;;;;5051556;28;20077;-79
2023/01/05 06:46:01;;;;;;;218.60;30.98;;;;;;;;;;5066307;28;20044;-79
2023/01/05 06:48:26;;;;;;;317.70;30.98;;;;;;;;;;5065157;28;20040;-78
2023/01/05 06:51:05;;;;;;;165.52;28.45;;;;;;;;;;5067433;28;20037;-80
2023/01/05 06:53:35;;;;;;;238.30;28.42;;;;;;;;;;5064019;28;20145;-78
2023/01/05 06:56:00;;;;;;;376.27;28.58;;;;;;;;;;5032960;28;20016;-82
2023/01/05 06:58:35;;;;;;;316.98;29.55;;;;;;;;;;5067689;28;20033;-81
2023/01/05 07:01:02;;;;;;;215.57;25.95;;;;;;;;;;5049403;28;20093;-80
2023/01/05 07:03:27;;;;;;;240.13;29.08;;;;;;;;;;5038431;28;20021;-79
2023/01/05 07:05:53;;;;;;;228.30;25.30;;;;;;;;;;5037572;28;20158;-79
2023/01/05 07:08:19;;;;;;;206.43;27.63;;;;;;;;;;5072046;28;20501;-79
2023/01/05 07:10:45;;;;;;;159.02;27.98;;;;;;;;;;5055259;28;20032;-77
2023/01/05 07:13:10;;;;;;;149.93;31.25;;;;;;;;;;5071896;28;20503;-79
2023/01/05 07:15:36;;;;;;;110.43;24.98;;;;;;;;;;5042848;28;20025;-80
2023/01/05 07:18:01;;;;;;;100.85;20.77;;;;;;;;;;5050751;28;20090;-81
2023/01/05 07:20:27;;;;;;;101.32;23.13;;;;;;;;;;5051402;28;20024;-77
2023/01/05 07:22:52;;;;;;;73.13;27.67;;;;;;;;;;5035700;28;20033;-78
2023/01/05 07:25:17;;;;;;;76.28;30.63;;;;;;;;;;5069023;28;20032;-78
2023/01/05 07:27:43;;;;;;;62.35;30.20;;;;;;;;;;5053844;28;20025;-79
2023/01/05 07:30:09;;;;;;;96.82;50.25;;;;;;;;;;5047063;28;20044;-78
2023/01/05 07:32:35;;;;;;;112.88;58.47;;;;;;;;;;5049727;28;20041;-79
2023/01/05 07:35:00;;;;;;;88.28;41.55;;;;;;;;;;5070442;28;20099;-81
2023/01/05 07:37:27;;;;;;;76.28;36.53;;;;;;;;;;5036843;28;20063;-79
2023/01/05 07:39:52;;;;;;;64.88;32.58;;;;;;;;;;5054410;28;20032;-78
2023/01/05 07:42:18;;;;;;;74.40;31.67;;;;;;;;;;5073568;28;20323;-81
2023/01/05 07:44:44;;;;;;;97.22;42.45;;;;;;;;;;5054643;28;20396;-81
2023/01/05 07:47:09;;;;;;;126.00;55.53;;;;;;;;;;5073654;28;20056;-80
2023/01/05 07:49:35;;;;;;;173.18;71.38;;;;;;;;;;5044631;28;20048;-80
2023/01/05 07:52:01;;;;;;;229.75;84.82;;;;;;;;;;5059424;28;20550;-80
2023/01/05 07:54:26;;;;;;;212.65;81.45;;;;;;;;;;5043893;28;20086;-81
2023/01/05 07:56:52;;;;;;;230.60;84.57;;;;;;;;;;5047676;28;20029;-79
2023/01/05 07:59:18;;;;;;;211.30;78.20;;;;;;;;;;5083506;28;20067;-80
2023/01/05 08:01:43;;;;;;;164.55;65.70;;;;;;;;;;5065243;28;20028;-81
2023/01/05 08:04:09;;;;;;;138.48;55.88;;;;;;;;;;5046047;28;20082;-82
2023/01/05 08:06:37;;;;;;;123.10;51.13;;;;;;;;;;5050370;28;20038;-81
2023/01/05 08:10:27;;;;;;;108.75;47.30;;;;;;;;;;5071889;28;20036;-81
2023/01/05 08:11:49;;;;;;;104.32;45.10;;;;;;;;;;5072413;28;20033;-81
2023/01/05 08:14:14;;;;;;;93.68;42.40;;;;;;;;;;5072346;28;20083;-79
2023/01/05 08:16:41;;;;;;;76.50;35.85;;;;;;;;;;5038808;28;20032;-80
2023/01/05 08:19:07;;;;;;;53.08;26.98;;;;;;;;;;5074334;28;20450;-80
2023/01/05 08:21:33;;;;;;;44.05;24.30;;;;;;;;;;5039235;28;20415;-78
2023/01/05 08:23:59;;;;;;;46.95;22.50;;;;;;;;;;5075114;28;20032;-78
2023/01/05 08:26:24;;;;;;;41.05;21.90;;;;;;;;;;5076887;28;20070;-83
2023/01/05 08:28:50;;;;;;;43.30;21.85;;;;;;;;;;5077420;28;20488;-83
2023/01/05 08:31:25;;;;;;;46.20;22.60;;;;;;;;;;5049630;28;20029;-79
2023/01/05 08:33:50;;;;;;;42.75;22.38;;;;;;;;;;5056998;28;20149;-81
2023/01/05 08:36:18;;;;;;;43.95;21.60;;;;;;;;;;5036367;28;20093;-79
2023/01/05 08:38:47;;;;;;;45.90;23.63;;;;;;;;;;5068947;28;20064;-79
2023/01/05 08:41:23;;;;;;;45.63;24.35;;;;;;;;;;5054015;28;20033;-79
2023/01/05 08:43:50;;;;;;;39.45;20.85;;;;;;;;;;5037227;28;20144;-79
2023/01/05 08:46:15;;;;;;;50.60;24.23;;;;;;;;;;5054988;28;20094;-79
2023/01/05 08:48:41;;;;;;;36.63;20.02;;;;;;;;;;5073637;28;20036;-79
2023/01/05 08:51:06;;;;;;;45.75;24.00;;;;;;;;;;5038403;28;20020;-80
2023/01/05 08:53:33;;;;;;;47.10;24.02;;;;;;;;;;5071927;28;20031;-80
2023/01/05 08:55:59;;;;;;;46.15;22.25;;;;;;;;;;5071891;28;20532;-79
2023/01/05 08:58:25;;;;;;;48.78;22.20;;;;;;;;;;5051319;28;20484;-80
2023/01/05 09:00:52;;;;;;;46.35;23.67;;;;;;;;;;5051804;28;20036;-80
2023/01/05 09:03:18;;;;;;;55.45;28.42;;;;;;;;;;5070922;28;20028;-79
2023/01/05 09:05:44;;;;;;;42.95;22.42;;;;;;;;;;5020124;28;20059;-81
2023/01/05 09:08:09;;;;;;;38.90;21.67;;;;;;;;;;5071792;28;20131;-78
2023/01/05 09:10:34;;;;;;;45.63;22.85;;;;;;;;;;5071632;28;20032;-80
2023/01/05 09:13:00;;;;;;;42.33;22.45;;;;;;;;;;5072677;28;20024;-77
2023/01/05 09:15:25;;;;;;;40.60;21.33;;;;;;;;;;5055190;28;20028;-77
2023/01/05 09:17:51;;;;;;;36.63;20.70;;;;;;;;;;5056931;28;20387;-77
2023/01/05 09:20:18;;;;;;;36.63;20.75;;;;;;;;;;5074743;28;20043;-79
2023/01/05 09:22:43;;;;;;;44.05;24.30;;;;;;;;;;5056165;28;20452;-78
2023/01/05 09:25:09;;;;;;;45.10;26.08;;;;;;;;;;5056569;28;20032;-77
2023/01/05 09:27:35;;;;;;;65.38;34.13;;;;;;;;;;5056011;28;20500;-78
2023/01/05 09:30:01;;;;;;;85.72;44.65;;;;;;;;;;5074168;28;20028;-78
2023/01/05 09:32:27;;;;;;;68.07;36.10;;;;;;;;;;5055786;28;20056;-77
2023/01/05 09:34:52;;;;;;;63.72;36.85;;;;;;;;;;5038616;28;20083;-79
2023/01/05 09:37:18;;;;;;;52.92;29.88;;;;;;;;;;5039188;28;20028;-78
2023/01/05 09:39:43;;;;;;;59.40;31.55;;;;;;;;;;5073734;28;20637;-78
2023/01/05 09:42:32;;;;;;;58.83;33.30;;;;;;;;;;5041739;28;20032;-79
2023/01/05 09:45:03;;;;;;;69.85;38.10;;;;;;;;;;5057503;28;20106;-78
2023/01/05 09:47:34;;;;;;;83.75;46.00;;;;;;;;;;5038590;28;20033;-78
2023/01/05 09:50:00;;;;;;;93.07;49.78;;;;;;;;;;5039535;28;20082;-79
2023/01/05 09:52:25;;;;;;;86.97;46.92;;;;;;;;;;5051166;28;20028;-80
2023/01/05 09:54:51;;;;;;;82.85;44.08;;;;;;;;;;5071171;28;20043;-77
2023/01/05 09:57:32;;;;;;;74.63;40.88;;;;;;;;;;5031937;28;20028;-82
2023/01/05 10:00:02;;;;;;;79.40;44.08;;;;;;;;;;5027160;28;20150;-78
2023/01/05 10:02:45;;;;;;;77.25;42.00;;;;;;;;;;5027228;28;20037;-78
2023/01/05 10:05:11;;;;;;;72.45;38.92;;;;;;;;;;5043449;28;20239;-77
2023/01/05 10:08:03;;;;;;;58.83;34.83;;;;;;;;;;5031777;28;20083;-76
2023/01/05 10:10:38;;;;;;;52.55;28.85;;;;;;;;;;5022525;28;20060;-79
2023/01/05 10:13:04;;;;;;;53.45;29.20;;;;;;;;;;5070543;28;20124;-77
2023/01/05 10:15:51;;;;;;;57.25;31.77;;;;;;;;;;5052405;28;20119;-78
2023/01/05 10:18:22;;;;;;;58.30;30.95;;;;;;;;;;5069458;28;20040;-78
2023/01/05 10:21:39;;;;;;;49.72;28.55;;;;;;;;;;5048045;28;20032;-78
2023/01/05 10:24:20;;;;;;;45.17;26.08;;;;;;;;;;5066554;28;20036;-76
2023/01/05 10:27:15;;;;;;;34.53;20.20;;;;;;;;;;5035237;28;20389;-78
2023/01/05 10:29:45;;;;;;;31.30;18.25;;;;;;;;;;4962340;28;20054;-77
2023/01/05 10:32:41;;;;;;;28.45;16.23;;;;;;;;;;5070137;28;20032;-79
2023/01/05 10:35:27;;;;;;;29.08;16.90;;;;;;;;;;5050594;28;20049;-79
2023/01/05 10:37:59;;;;;;;31.30;17.67;;;;;;;;;;5052633;28;20039;-77
2023/01/05 10:40:38;;;;;;;30.13;17.15;;;;;;;;;;5069217;28;20044;-78
2023/01/05 10:43:26;;;;;;;28.33;16.90;;;;;;;;;;5037517;28;20465;-75
2023/01/05 10:45:51;;;;;;;28.33;17.13;;;;;;;;;;5073071;28;20036;-79
2023/01/05 10:48:19;;;;;;;32.33;16.90;;;;;;;;;;5049641;28;20063;-76
2023/01/05 10:50:45;;;;;;;34.20;17.30;;;;;;;;;;5051510;28;20031;-76
2023/01/05 10:53:18;;;;;;;29.85;17.92;;;;;;;;;;5051764;28;20392;-77
2023/01/05 10:55:58;;;;;;;30.17;17.55;;;;;;;;;;5030539;28;20365;-78
2023/01/05 10:58:43;;;;;;;30.75;17.15;;;;;;;;;;5028707;28;20044;-80
2023/01/05 11:01:29;;;;;;;32.55;17.10;;;;;;;;;;5067283;28;20036;-79
2023/01/05 11:04:03;;;;;;;30.05;17.85;;;;;;;;;;5038066;28;20107;-77
2023/01/05 11:06:32;;;;;;;31.00;17.45;;;;;;;;;;5052385;28;20429;-78
2023/01/05 11:10:51;;;;;;;34.72;17.88;;;;;;;;;;5036409;28;20040;-78
2023/01/05 11:12:51;;;;;;;31.10;19.25;;;;;;;;;;4961306;28;20038;-77
2023/01/05 11:15:18;;;;;;;33.90;19.35;;;;;;;;;;5006626;28;20028;-80
2023/01/05 11:17:44;;;;;;;35.65;19.70;;;;;;;;;;5066903;28;20039;-77
2023/01/05 11:20:16;;;;;;;37.90;20.90;;;;;;;;;;5061781;28;20037;-80
2023/01/05 11:22:44;;;;;;;40.58;21.42;;;;;;;;;;5058843;28;20109;-78
2023/01/05 11:25:21;;;;;;;42.22;22.88;;;;;;;;;;5077728;28;20107;-77
2023/01/05 11:28:04;;;;;;;39.63;22.38;;;;;;;;;;5054783;28;20035;-77
2023/01/05 11:30:30;;;;;;;38.97;22.88;;;;;;;;;;5043335;28;20051;-78
2023/01/05 11:32:57;;;;;;;39.53;21.60;;;;;;;;;;5047671;28;20445;-79
2023/01/05 11:35:30;;;;;;;32.10;18.80;;;;;;;;;;5027474;28;20045;-77
2023/01/05 11:37:56;;;;;;;38.03;19.40;;;;;;;;;;5043539;28;20040;-79
2023/01/05 11:40:25;;;;;;;35.50;20.42;;;;;;;;;;5030418;28;20061;-76
2023/01/05 11:43:19;;;;;;;40.42;22.35;;;;;;;;;;5018415;28;20439;-77
2023/01/05 11:45:47;;;;;;;56.20;27.25;;;;;;;;;;5014166;28;20046;-76
2023/01/05 11:48:17;;;;;;;53.03;26.95;;;;;;;;;;5021878;28;20033;-78
2023/01/05 11:50:45;;;;;;;47.83;24.77;;;;;;;;;;5012072;28;20044;-76
2023/01/05 11:53:32;;;;;;;44.55;23.92;;;;;;;;;;5030005;28;20033;-77
2023/01/05 11:56:02;;;;;;;29.58;17.58;;;;;;;;;;5030550;28;20030;-76
2023/01/05 11:58:42;;;;;;;24.35;13.93;;;;;;;;;;5026057;28;20037;-77
2023/01/05 12:01:35;;;;;;;16.17;9.93;;;;;;;;;;5029865;28;20060;-78
2023/01/05 12:04:19;;;;;;;20.65;10.45;;;;;;;;;;5027358;28;20140;-77
2023/01/05 12:07:10;;;;;;;25.75;12.05;;;;;;;;;;5029577;28;20022;-78
2023/01/05 12:09:52;;;;;;;30.83;12.70;;;;;;;;;;5034457;28;20175;-77
2023/01/05 12:12:32;;;;;;;19.00;11.07;;;;;;;;;;5012311;28;20022;-77
2023/01/05 12:15:01;;;;;;;21.98;11.35;;;;;;;;;;5049072;28;20038;-76
2023/01/05 12:17:38;;;;;;;19.02;10.30;;;;;;;;;;5031352;28;20037;-76
2023/01/05 12:20:06;;;;;;;19.70;10.07;;;;;;;;;;5012386;28;20037;-77
2023/01/05 12:22:50;;;;;;;22.40;10.68;;;;;;;;;;5035387;28;20410;-76
2023/01/05 12:25:25;;;;;;;23.40;9.15;;;;;;;;;;5021751;28;20034;-81
2023/01/05 12:28:25;;;;;;;16.13;9.27;;;;;;;;;;5032676;28;20072;-76
2023/01/05 12:31:34;;;;;;;18.38;9.77;;;;;;;;;;5019758;28;20140;-78
2023/01/05 12:34:01;;;;;;;21.17;10.05;;;;;;;;;;5042130;28;20365;-78
2023/01/05 12:36:51;;;;;;;17.63;9.32;;;;;;;;;;5071360;28;20186;-79
2023/01/05 12:39:19;;;;;;;16.58;8.32;;;;;;;;;;5071720;28;20064;-79
2023/01/05 12:42:07;;;;;;;16.70;9.82;;;;;;;;;;5073385;28;20036;-80
2023/01/05 12:44:46;;;;;;;19.63;11.50;;;;;;;;;;5056676;28;20044;-79
2023/01/05 12:47:31;;;;;;;15.07;9.20;;;;;;;;;;5056331;28;20032;-79
2023/01/05 12:50:22;;;;;;;14.70;8.63;;;;;;;;;;5052641;28;20603;-79
2023/01/05 12:52:50;;;;;;;15.57;8.48;;;;;;;;;;5059076;28;20049;-79
2023/01/05 12:55:16;;;;;;;17.20;9.93;;;;;;;;;;5034304;28;20036;-78
2023/01/05 12:57:48;;;;;;;17.08;10.80;;;;;;;;;;5068538;28;20048;-79
2023/01/05 13:00:16;;;;;;;17.70;9.50;;;;;;;;;;5054384;28;20391;-80
2023/01/05 13:02:48;;;;;;;17.15;9.93;;;;;;;;;;5020800;28;20127;-79
2023/01/05 13:05:26;;;;;;;16.02;9.30;;;;;;;;;;5022454;28;20020;-79
2023/01/05 13:08:16;;;;;;;18.55;10.30;;;;;;;;;;5072933;28;20028;-79
2023/01/05 13:10:48;;;;;;;19.42;10.05;;;;;;;;;;5041556;28;20131;-78
2023/01/05 13:13:17;;;;;;;22.05;9.68;;;;;;;;;;5056656;28;20472;-78
2023/01/05 13:15:53;;;;;;;17.38;9.23;;;;;;;;;;5057130;28;20094;-80
2023/01/05 13:18:18;;;;;;;26.40;9.82;;;;;;;;;;5041241;28;20055;-77
2023/01/05 13:20:52;;;;;;;18.70;9.27;;;;;;;;;;5057538;28;20094;-77
2023/01/05 13:23:26;;;;;;;23.80;10.73;;;;;;;;;;5041250;28;20434;-77
2023/01/05 13:25:54;;;;;;;18.80;10.07;;;;;;;;;;5042185;28;20446;-77
2023/01/05 13:28:21;;;;;;;19.90;10.38;;;;;;;;;;5057633;28;20059;-77
2023/01/05 13:31:11;;;;;;;28.55;12.23;;;;;;;;;;5057952;28;20070;-76
2023/01/05 13:34:11;;;;;;;28.20;11.90;;;;;;;;;;5009669;28;20097;-77
2023/01/05 13:36:40;;;;;;;26.30;10.88;;;;;;;;;;5069398;28;20045;-76
2023/01/05 13:39:28;;;;;;;25.30;12.57;;;;;;;;;;5075035;28;20082;-77
2023/01/05 13:42:12;;;;;;;34.38;12.55;;;;;;;;;;5060058;28;20063;-78
2023/01/05 13:45:04;;;;;;;28.17;12.68;;;;;;;;;;5074882;28;20111;-78
2023/01/05 13:47:32;;;;;;;32.10;13.38;;;;;;;;;;5047217;28;20101;-75
2023/01/05 13:50:06;;;;;;;27.33;12.35;;;;;;;;;;5057098;28;20029;-78
2023/01/05 13:52:59;;;;;;;34.00;13.35;;;;;;;;;;5074793;28;20060;-79
2023/01/05 13:55:25;;;;;;;21.45;11.60;;;;;;;;;;5074781;28;20032;-78
2023/01/05 13:57:50;;;;;;;26.73;11.93;;;;;;;;;;5090727;28;20036;-77
2023/01/05 14:00:30;;;;;;;30.55;13.10;;;;;;;;;;5040487;28;20119;-77
2023/01/05 14:02:59;;;;;;;26.38;13.30;;;;;;;;;;5040529;28;20033;-77
2023/01/05 14:05:29;;;;;;;24.08;12.10;;;;;;;;;;5056869;28;20032;-78
2023/01/05 14:07:54;;;;;;;23.27;11.85;;;;;;;;;;5040899;28;20523;-77
2023/01/05 14:10:24;;;;;;;22.90;11.63;;;;;;;;;;5040263;28;20029;-76
2023/01/05 14:12:50;;;;;;;22.25;12.35;;;;;;;;;;5023720;28;20111;-77
2023/01/05 14:15:30;;;;;;;24.05;11.45;;;;;;;;;;5039986;28;20136;-77
2023/01/05 14:18:01;;;;;;;;;;;;;;;;;;5056995;28;20071;-78
2023/01/05 14:20:56;;;;;;;29.83;14.77;;;;;;;;;;5040283;28;20595;-78
2023/01/05 14:23:24;;;;;;;30.10;13.82;;;;;;;;;;5052950;28;20043;-77
2023/01/05 14:25:59;;;;;;;27.23;13.77;;;;;;;;;;5074422;28;20043;-77
2023/01/05 14:28:27;;;;;;;30.83;15.18;;;;;;;;;;5074402;28;20032;-77
2023/01/05 14:31:13;;;;;;;28.42;14.27;;;;;;;;;;5056254;28;20024;-77
2023/01/05 14:33:57;;;;;;;23.92;13.88;;;;;;;;;;5056569;28;20083;-77
2023/01/05 14:36:23;;;;;;;24.70;11.43;;;;;;;;;;5056522;28;20376;-77
2023/01/05 14:38:48;;;;;;;22.80;11.90;;;;;;;;;;5073999;28;20126;-77
2023/01/05 14:41:14;;;;;;;23.45;10.93;;;;;;;;;;5039709;28;20116;-76
2023/01/05 14:43:40;;;;;;;23.63;11.27;;;;;;;;;;5056537;28;20033;-77
2023/01/05 14:46:10;;;;;;;25.77;12.40;;;;;;;;;;5056305;28;20506;-77
2023/01/05 14:48:43;;;;;;;;;;;;;;;;;;5040634;28;20029;-77
2023/01/05 14:51:16;;;;;;;35.55;15.38;;;;;;;;;;5039650;28;19918;-77
2023/01/05 14:53:46;;;;;;;31.40;15.00;;;;;;;;;;5074984;28;20025;-78
2023/01/05 14:56:16;;;;;;;;;;;;;;;;;;5057740;28;20035;-78
2023/01/05 14:58:47;;;;;;;33.13;16.38;;;;;;;;;;5059021;28;20321;-77
2023/01/05 15:01:13;;;;;;;41.70;19.05;;;;;;;;;;5078430;28;20120;-77
2023/01/05 15:04:06;;;;;;;39.85;19.20;;;;;;;;;;5056729;28;20071;-77
2023/01/05 15:06:47;;;;;;;38.58;18.55;;;;;;;;;;5056069;28;20025;-77
2023/01/05 15:09:46;;;;;;;50.10;20.95;;;;;;;;;;5073675;28;20036;-77
2023/01/05 15:12:14;;;;;;;57.13;23.35;;;;;;;;;;5039194;28;20032;-76